Flight Briefing for CPX18

Departure Arrival
Ted Stevens Anchorage International Airport (PANC)
Click to view FAA NOTAMS
Taiwan Taoyuan International Airport (RCTP)
Click to view FAA NOTAMS
Departure Time Arrival Time
N/A N/A
Aircraft Distance
B747-400BCF 4065nm
Departure METAR Arrival METAR
PANC 232353Z 02006KT 10SM FEW045 BKN080 OVC200 14/03 A3003 RMK AO2 SLPNO 6//// T01390028 10156 20111 RCTP 232330Z 12010KT 9999 FEW020 SCT060 28/23 Q1012 NOSIG RMK A2991
Suggested Route
NODLE R220 NANNO ALICE Y111 MQE Y124 GTC Y12 KEC A1 AISAR A1 DRAKE DRAKE1A


View recent IFR Routes data
Notes



Charts and Procedures

Charts for PANC
No chart available
Charts for RCTP
No chart available

Windy.com Weather Map